Gajny, Russia
Current Conditions -  °F | °C
As of 4:30 AM on Wednesday 22 Oct 2014 (Local Time) from UUYY Reporting Station
Clear Clear  
Wind Chill: -11°   Ceiling: Unl
Heat Index:   Visibility: 6mi
Dew Point:   Wind: 9mph
Humidity: 85%   Direction: 30°NNE
Pressure: 29.91"   Gusts: NA
Location:  60.3°N, 54.33°E
Report Text: UUYY 220030Z 03004MPS CAVOK M16/M18 Q1013 NOSIG 01CLRD61 RMKQFE751/1001
Loading
Personal Weather Stations






























Interactive Weather Map
Tropical Storm Tracking
New forecast layout! Learn more

10-Day Weather Forecast

Advertisements
Track Severe Weather on mobile